createdAt,value
2022-09-12T00:04:00.370Z,18.23
2022-09-12T00:10:02.036Z,17.17
2022-09-12T00:16:05.025Z,14.40
2022-09-12T00:22:06.728Z,13.75
2022-09-12T00:28:08.372Z,16.92
2022-09-12T00:34:10.442Z,17.35
2022-09-12T00:40:12.152Z,17.20
2022-09-12T00:46:27.968Z,21.20
2022-09-12T00:52:52.280Z,18.88
2022-09-12T00:59:05.089Z,16.45
2022-09-12T01:05:08.182Z,19.98
2022-09-12T01:11:10.957Z,16.15
2022-09-12T01:17:14.942Z,17.70
2022-09-12T01:23:55.364Z,17.50
2022-09-12T01:30:18.066Z,18.52
2022-09-12T01:36:32.436Z,17.95
2022-09-12T01:43:07.490Z,20.20
2022-09-12T01:49:19.837Z,14.38
2022-09-12T01:55:30.123Z,18.35
2022-09-12T02:01:35.303Z,18.88
2022-09-12T02:07:53.342Z,20.17
2022-09-12T02:14:10.372Z,16.98
2022-09-12T02:20:37.400Z,17.13
2022-09-12T02:26:52.582Z,17.38
2022-09-12T02:33:20.323Z,17.40
2022-09-12T02:39:22.273Z,22.85
2022-09-12T02:45:24.220Z,18.02
2022-09-12T02:51:27.038Z,17.00
2022-09-12T02:57:28.696Z,19.83
2022-09-12T03:03:38.231Z,19.90
2022-09-12T03:09:58.967Z,24.27
2022-09-12T03:16:15.559Z,19.08
2022-09-12T03:22:54.890Z,21.33
2022-09-12T03:28:57.592Z,19.42
2022-09-12T03:34:59.263Z,17.17
2022-09-12T03:41:01.287Z,21.98
2022-09-12T03:47:03.035Z,21.50
2022-09-12T03:53:04.765Z,21.63
2022-09-12T03:59:06.856Z,22.17
2022-09-12T04:05:08.881Z,21.42
2022-09-12T04:11:12.868Z,22.63
2022-09-12T04:17:15.465Z,22.95
2022-09-12T04:23:17.213Z,22.40
2022-09-12T04:29:19.120Z,21.70
2022-09-12T04:35:20.861Z,19.00
2022-09-12T04:41:26.071Z,20.60
2022-09-12T04:47:28.268Z,18.13
2022-09-12T04:53:29.941Z,17.38
2022-09-12T04:59:31.622Z,16.95
2022-09-12T05:05:33.321Z,21.55
2022-09-12T05:12:02.815Z,20.55
2022-09-12T05:17:59.492Z,22.85
2022-09-12T05:24:01.290Z,16.05
2022-09-12T05:30:03.118Z,15.68
2022-09-12T05:36:07.073Z,14.75
2022-09-12T05:42:09.202Z,14.50
2022-09-12T05:48:10.954Z,16.65
2022-09-12T05:54:15.388Z,17.50
2022-09-12T06:06:21.621Z,17.02
2022-09-12T06:12:23.558Z,15.15
2022-09-12T06:18:25.243Z,12.38
2022-09-12T06:24:27.405Z,12.77
2022-09-12T06:30:29.160Z,11.98
2022-09-12T06:36:33.807Z,21.42
2022-09-12T06:48:41.537Z,11.57
2022-09-12T06:54:43.633Z,17.92
2022-09-12T07:00:45.421Z,13.85
2022-09-12T07:06:47.797Z,15.02
2022-09-12T07:12:49.455Z,13.10
2022-09-12T07:18:53.360Z,14.20
2022-09-12T07:24:55.744Z,14.02
2022-09-12T07:30:58.212Z,14.27
2022-09-12T07:36:59.899Z,14.20
2022-09-12T07:43:01.581Z,14.80
2022-09-12T07:49:03.324Z,16.70
2022-09-12T07:55:05.375Z,15.02
2022-09-12T08:01:23.159Z,13.98
2022-09-12T08:07:24.877Z,14.15
2022-09-12T08:13:28.529Z,13.20
2022-09-12T08:19:31.535Z,14.73
2022-09-12T08:25:34.381Z,13.93
2022-09-12T08:31:39.174Z,12.43
2022-09-12T08:37:41.076Z,11.70
2022-09-12T08:43:56.072Z,8.90
2022-09-12T08:50:10.419Z,8.52
2022-09-12T08:56:12.543Z,7.73
2022-09-12T09:02:29.544Z,12.45
2022-09-12T09:09:08.301Z,6.97
2022-09-12T09:15:35.063Z,7.45
2022-09-12T09:21:54.700Z,7.35
2022-09-12T09:28:06.007Z,6.60
2022-09-12T09:34:20.163Z,5.35
2022-09-12T09:46:29.465Z,6.57
2022-09-12T09:52:32.392Z,6.57
2022-09-12T09:58:35.438Z,8.30
2022-09-12T10:04:41.666Z,7.93
2022-09-12T10:11:01.824Z,7.35
2022-09-12T10:17:46.506Z,7.28
2022-09-12T10:23:57.681Z,5.00
2022-09-12T10:30:19.999Z,8.52
2022-09-12T10:36:23.613Z,5.88
2022-09-12T10:42:44.322Z,6.03
2022-09-12T10:48:51.060Z,4.45
2022-09-12T10:54:53.613Z,5.53
2022-09-12T11:01:07.738Z,5.28
2022-09-12T11:07:34.381Z,8.10
2022-09-12T11:13:51.027Z,5.10
2022-09-12T11:20:09.972Z,4.57
2022-09-12T11:26:30.162Z,7.38
2022-09-12T11:33:09.272Z,7.38
2022-09-12T11:39:43.420Z,6.10
2022-09-12T11:45:46.463Z,6.43
2022-09-12T11:51:51.301Z,7.90
2022-09-12T11:57:58.534Z,9.48
2022-09-12T12:04:06.308Z,5.38
2022-09-12T12:10:41.784Z,5.95
2022-09-12T12:16:44.204Z,8.32
2022-09-12T12:22:55.381Z,8.68
2022-09-12T12:28:59.130Z,6.50
2022-09-12T12:35:36.460Z,6.60
2022-09-12T12:41:43.037Z,7.78
2022-09-12T12:47:57.842Z,5.70
2022-09-12T12:54:01.343Z,7.40
2022-09-12T13:00:28.343Z,7.00
2022-09-12T13:06:42.200Z,8.45
2022-09-12T13:12:47.635Z,5.82
2022-09-12T13:18:50.025Z,6.38
2022-09-12T13:24:52.547Z,5.67
2022-09-12T13:31:11.456Z,4.97
2022-09-12T13:37:27.934Z,5.75
2022-09-12T13:43:48.215Z,5.10
2022-09-12T13:49:50.299Z,6.60
2022-09-12T13:55:56.526Z,4.88
2022-09-12T14:01:58.381Z,4.75
2022-09-12T14:08:04.568Z,4.13
2022-09-12T14:14:18.364Z,3.97
2022-09-12T14:20:23.346Z,5.13
2022-09-12T14:26:26.295Z,8.88
2022-09-12T14:32:28.029Z,6.32
2022-09-12T14:38:37.394Z,6.45
2022-09-12T14:44:40.834Z,4.63
